Knutsford, United Kingdom
Current Conditions -  °F | °C
As of 1:50 PM on Monday 22 Dec 2014 (Local Time) from EGCC Reporting Station
Drizzle Drizzle  
Wind Chill: 55°   Ceiling: 3600
Heat Index: 55°   Visibility: 6mi
Dew Point: 48°   Wind: 26mph
Humidity: 77%   Direction: 240°WSW
Pressure: 29.83"   Gusts: NA
Location:  53.3°N, 2.37°W
Report Text: EGCC 221350Z 24023KT 9999 DZ FEW026 BKN036 13/09 Q1010 TEMPO -RA
Loading
Personal Weather Stations






























Interactive Weather Map New forecast layout! Learn more

10-Day Weather Forecast

Advertisements
Track Severe Weather on mobile